Latest Weather Observations for Mt Seldom Seen

IDV60801

Issued at 10:02 am EST Wednesday 26 April 2017 (issued every 30 minutes, with the page automatically refreshed every 10 minutes)

About weather observations | Map of weather stations | Latest weather observations for VIC | Other Formats
Station Details ID: 250030 Name: VICTORIAN PORTABLE J Lat: -37.10 Lon: 148.19 Height: 1344.0 m
Data from the previous 72 hours. | See also: Recent months for locations in Victoria
Date/Time
EST
Temp
°C
App
Temp
°C
Dew
Point
°C
Rel
Hum
%
Delta-T
°C
Wind Press
QNH
hPa
Press
MSL
hPa
Rain since
9am
mm
Dir  Spd
km/h
Gust
km/h
Spd
kts
Gust
kts
25/10:50am 10.3 5.4 8.4 88 1.0 W 24 44 13 24 - - 0.8
25/10:40am 10.1 4.4 8.2 88 1.0 W 28 54 15 29 - - 0.8
25/10:30am 10.1 3.4 8.2 88 1.0 W 33 57 18 31 - - 0.8
25/10:20am 10.0 4.3 8.4 90 0.8 W 28 48 15 26 - - 0.8
25/10:10am 9.9 2.1 8.3 90 0.8 W 39 57 21 31 - - 0.8
25/10:00am 9.8 3.8 8.6 92 0.6 W 30 44 16 24 - - 0.8
25/09:50am 9.7 3.7 8.5 92 0.6 W 30 50 16 27 - - 0.6
25/09:40am 9.7 2.7 8.5 92 0.6 WNW 35 56 19 30 - - 0.4
25/09:30am 9.8 3.8 8.5 92 0.7 W 30 57 16 31 - - 0.4
25/09:20am 10.1 3.7 8.5 90 0.8 WNW 32 63 17 34 - - 0.2
25/09:10am 10.2 3.8 8.5 89 0.9 W 32 52 17 28 - - 0.2
25/09:00am 10.2 4.6 8.8 91 0.7 W 28 48 15 26 - - 2.4
25/08:50am 10.3 4.3 8.8 90 0.8 W 30 46 16 25 - - 2.4
25/08:40am 10.3 6.3 9.1 92 0.6 W 20 43 11 23 - - 2.4
25/08:30am 10.3 6.3 9.2 93 0.6 WNW 20 35 11 19 - - 2.4
25/08:20am 10.2 6.2 9.1 93 0.6 WNW 20 32 11 17 - - 2.4
25/08:10am 10.2 5.1 9.1 93 0.6 WNW 26 44 14 24 - - 2.0
25/08:00am 10.3 3.8 9.0 92 0.7 WNW 33 50 18 27 - - 2.0
25/07:50am 10.6 5.1 9.0 90 0.9 NW 28 52 15 28 - - 2.0
25/07:40am 10.5 5.8 9.1 91 0.7 NW 24 37 13 20 - - 1.8
25/07:30am 10.4 5.7 9.1 92 0.7 NW 24 37 13 20 - - 1.8
25/07:20am 10.3 5.6 9.1 92 0.6 NW 24 37 13 20 - - 1.8
25/07:10am 10.3 5.1 9.0 92 0.7 NW 26 39 14 21 - - 1.6
25/07:00am 10.3 5.5 9.0 92 0.7 NW 24 37 13 20 - - 1.4
25/06:50am 10.3 5.5 9.0 92 0.7 NW 24 35 13 19 - - 1.2
25/06:40am 10.2 6.2 8.9 92 0.7 NW 20 30 11 16 - - 1.2
25/06:30am 10.5 5.7 8.9 90 0.9 NW 24 37 13 20 - - 1.2
25/06:20am 10.5 4.9 8.9 90 0.9 WNW 28 43 15 23 - - 1.2
25/06:10am 10.4 4.5 8.9 90 0.8 NW 30 48 16 26 - - 1.0
25/06:00am 10.4 5.2 8.9 90 0.8 NW 26 44 14 24 - - 1.0
25/05:50am 10.2 5.8 8.8 91 0.7 NW 22 35 12 19 - - 1.0
25/05:40am 10.2 6.7 8.9 92 0.7 NNW 17 28 9 15 - - 0.8
25/05:30am 10.1 7.0 8.7 91 0.7 NNW 15 30 8 16 - - 0.8
25/05:20am 10.0 6.8 8.6 91 0.7 NNW 15 32 8 17 - - 0.8
25/05:10am 10.3 7.5 8.6 89 0.9 NNW 13 28 7 15 - - 0.4
25/05:00am 10.7 7.1 8.4 86 1.2 NNW 17 32 9 17 - - 0.0
25/04:50am 10.9 6.3 8.2 83 1.4 NW 22 35 12 19 - - 0.0
25/04:40am 11.0 4.9 8.1 82 1.5 NNW 30 46 16 25 - - 0.0
25/04:30am 10.9 4.2 8.1 83 1.5 NNW 33 50 18 27 - - 0.0
25/04:20am 11.0 2.2 8.0 82 1.6 WNW 44 63 24 34 - - 0.0
25/04:10am 10.4 2.9 8.1 86 1.2 WNW 37 67 20 36 - - 0.0
25/04:00am 10.5 3.7 7.9 84 1.4 WNW 33 56 18 30 - - 0.0
25/03:50am 10.9 3.3 7.6 80 1.7 WNW 37 65 20 35 - - 0.0
25/03:40am 11.1 3.1 7.4 78 1.9 WNW 39 65 21 35 - - 0.0
25/03:30am 11.0 4.3 7.3 78 1.9 WNW 32 59 17 32 - - 0.0
25/03:20am 11.0 5.4 7.1 77 2.0 NW 26 46 14 25 - - 0.0
25/03:10am 11.0 6.1 7.0 76 2.1 NNW 22 48 12 26 - - 0.0
25/03:00am 11.1 5.5 7.0 76 2.1 NNW 26 67 14 36 - - 0.0
25/02:50am 11.1 5.5 7.0 76 2.1 NNW 26 52 14 28 - - 0.0
25/02:40am 11.1 4.7 7.0 76 2.1 NW 30 52 16 28 - - 0.0
25/02:30am 11.0 5.4 7.1 77 2.0 NW 26 46 14 25 - - 0.0
25/02:10am 11.0 5.0 7.2 77 2.0 NW 28 52 15 28 - - 0.0
25/02:00am 11.0 6.6 7.2 77 2.0 NW 20 39 11 21 - - 0.0
25/01:50am 11.0 5.8 7.2 77 2.0 NW 24 41 13 22 - - 0.0
25/01:40am 10.9 5.3 7.3 78 1.9 NW 26 46 14 25 - - 0.0
25/01:30am 10.9 4.2 7.3 78 1.9 NW 32 52 17 28 - - 0.0
25/01:20am 10.8 2.8 7.4 79 1.8 NW 39 57 21 31 - - 0.0
25/01:10am 10.6 3.3 7.4 80 1.7 WNW 35 56 19 30 - - 0.0
25/01:00am 10.7 5.2 7.4 80 1.7 NW 26 46 14 25 - - 0.0
25/12:50am 10.6 7.1 7.3 80 1.7 NNW 15 30 8 16 - - 0.0
25/12:40am 10.7 6.8 7.3 79 1.8 NNW 17 35 9 19 - - 0.0
25/12:30am 10.7 7.2 7.2 79 1.8 NNW 15 28 8 15 - - 0.0
25/12:20am 10.8 7.3 7.2 78 1.9 N 15 33 8 18 - - 0.0
25/12:10am 10.5 7.8 7.2 80 1.7 NNW 11 22 6 12 - - 0.0
25/12:00am 10.9 7.8 7.1 77 2.0 N 13 22 7 12 - - 0.0
 
Date/Time
EST
Temp
°C
App
Temp
°C
Dew
Point
°C
Rel
Hum
%
Delta-T
°C
Wind Press
QNH
hPa
Press
MSL
hPa
Rain since
9am
mm
Dir  Spd
km/h
Gust
km/h
Spd
kts
Gust
kts
24/11:50pm 10.9 7.0 7.1 77 2.0 NNW 17 30 9 16 - - 0.0
24/11:40pm 10.9 6.6 7.1 77 2.0 NW 19 30 10 16 - - 0.0
24/11:30pm 10.9 6.4 7.1 77 2.0 NW 20 35 11 19 - - 0.0
24/11:20pm 10.9 6.4 7.1 77 2.0 NW 20 35 11 19 - - 0.0
24/11:10pm 10.8 6.3 7.1 78 1.9 NW 20 35 11 19 - - 0.0
24/11:00pm 10.9 6.0 7.0 77 2.0 NW 22 37 12 20 - - 0.0
24/10:50pm 11.0 5.8 7.1 77 2.0 NW 24 39 13 21 - - 0.0
24/10:40pm 10.9 4.9 7.2 78 1.9 NW 28 39 15 21 - - 0.0
24/10:30pm 10.7 4.7 7.1 78 1.9 NW 28 39 15 21 - - 0.0
24/10:20pm 10.7 4.7 7.1 78 1.9 NW 28 39 15 21 - - 0.0
24/10:10pm 10.6 5.4 7.1 79 1.8 NW 24 35 13 19 - - 0.0
24/10:00pm 10.6 5.7 7.1 79 1.8 NW 22 30 12 16 - - 0.0
24/09:50pm 10.5 5.3 7.2 80 1.7 NW 24 35 13 19 - - 0.0
24/09:40pm 10.7 4.4 7.2 79 1.8 WNW 30 39 16 21 - - 0.0
24/09:30pm 10.6 3.9 7.2 79 1.7 WNW 32 41 17 22 - - 0.0
24/09:20pm 10.6 3.8 7.1 79 1.8 WNW 32 44 17 24 - - 0.0
24/09:00pm 10.5 4.1 7.0 79 1.8 WNW 30 41 16 22 - - 0.0
24/08:50pm 10.8 3.4 6.7 76 2.1 WNW 35 48 19 26 - - 0.0
24/08:40pm 10.8 4.3 6.4 74 2.2 WNW 30 44 16 24 - - 0.0
24/08:30pm 10.9 4.3 6.2 73 2.4 WNW 30 46 16 25 - - 0.0
24/08:20pm 10.8 3.9 6.3 74 2.3 WNW 32 46 17 25 - - 0.0
24/08:10pm 10.8 4.6 6.3 74 2.3 WNW 28 39 15 21 - - 0.0
24/08:00pm 10.9 5.1 6.2 73 2.4 WNW 26 39 14 21 - - 0.0
24/07:50pm 10.8 4.6 6.3 74 2.3 WNW 28 39 15 21 - - 0.0
24/07:40pm 10.5 5.5 6.5 76 2.0 WNW 22 33 12 18 - - 0.0
24/07:30pm 10.6 6.2 6.4 75 2.1 WNW 19 30 10 16 - - 0.0
24/07:20pm 10.5 6.5 6.8 78 1.9 WNW 17 26 9 14 - - 0.0
24/07:10pm 10.7 6.2 6.8 77 2.0 WNW 20 30 11 16 - - 0.0
24/07:00pm 11.0 6.1 6.8 75 2.1 NW 22 37 12 20 - - 0.0
24/06:50pm 11.0 6.4 6.7 75 2.2 NW 20 28 11 15 - - 0.0
24/06:40pm 11.1 6.7 6.7 74 2.2 NW 19 28 10 15 - - 0.0
24/06:30pm 11.1 6.7 6.7 74 2.2 NW 19 26 10 14 - - 0.0
24/06:20pm 11.3 7.3 6.7 73 2.4 NW 17 26 9 14 - - 0.0
24/06:10pm 11.5 7.5 6.5 71 2.6 NW 17 24 9 13 - - 0.0
24/06:00pm 11.6 7.0 6.4 70 2.6 NW 20 30 11 16 - - 0.0
24/05:50pm 11.7 7.1 6.5 70 2.7 NW 20 30 11 16 - - 0.0
24/05:40pm 11.7 7.1 6.5 70 2.7 WNW 20 32 11 17 - - 0.0
24/05:30pm 11.7 8.4 6.4 70 2.7 W 13 24 7 13 - - 0.0
24/05:20pm 11.8 8.9 6.3 69 2.8 W 11 22 6 12 - - 0.0
24/05:10pm 12.1 8.8 6.2 67 3.0 W 13 22 7 12 - - 0.0
24/05:00pm 12.4 9.0 6.0 65 3.3 W 13 22 7 12 - - 0.0
24/04:50pm 12.5 9.1 5.8 63 3.4 W 13 22 7 12 - - 0.0
24/04:40pm 12.6 8.7 5.5 62 3.6 W 15 24 8 13 - - 0.0
24/04:30pm 12.7 8.8 5.3 60 3.7 W 15 26 8 14 - - 0.0
24/04:20pm 13.1 9.9 5.2 58 4.0 W 11 24 6 13 - - 0.0
24/04:10pm 13.6 10.8 5.3 57 4.2 W 9 20 5 11 - - 0.0
24/04:00pm 14.3 10.7 5.2 54 4.6 W 13 26 7 14 - - 0.0
24/03:50pm 14.6 11.1 5.5 54 4.6 W 13 30 7 16 - - 0.0
24/03:40pm 14.9 11.4 5.6 53 4.8 W 13 26 7 14 - - 0.0
24/03:30pm 15.3 12.6 5.6 52 5.0 WSW 9 24 5 13 - - 0.0
24/03:20pm 15.2 12.1 5.6 52 4.9 WSW 11 24 6 13 - - 0.0
24/03:10pm 14.5 11.7 5.1 53 4.8 WSW 9 24 5 13 - - 0.0
24/03:00pm 15.3 11.7 5.2 51 5.1 WSW 13 24 7 13 - - 0.0
24/02:50pm 15.1 11.1 5.1 51 5.1 W 15 26 8 14 - - 0.0
24/02:40pm 15.2 11.4 3.9 47 5.6 W 13 26 7 14 - - 0.0
24/02:30pm 15.2 11.6 5.2 51 5.1 W 13 22 7 12 - - 0.0
24/02:20pm 15.4 11.7 4.6 48 5.4 W 13 30 7 16 - - 0.0
24/02:10pm 16.2 13.0 5.3 48 5.6 W 11 20 6 11 - - 0.0
24/02:00pm 16.0 12.6 5.7 50 5.3 W 13 20 7 11 - - 0.0
24/01:50pm 15.5 12.7 5.2 50 5.3 W 9 15 5 8 - - 0.0
24/01:40pm 16.1 12.9 5.0 47 5.7 W 11 20 6 11 - - 0.0
24/01:30pm 15.3 12.4 4.8 49 5.3 W 9 15 5 8 - - 0.0
24/01:20pm 14.2 11.7 4.5 52 4.8 W 7 17 4 9 - - 0.0
24/01:10pm 14.7 12.4 5.7 55 4.6 W 7 22 4 12 - - 0.0
24/01:00pm 15.3 12.0 4.6 49 5.4 W 11 20 6 11 - - 0.0
24/12:50pm 15.6 12.9 5.7 51 5.1 W 9 20 5 11 - - 0.0
24/12:40pm 16.2 13.1 5.7 49 5.4 W 11 22 6 12 - - 0.0
24/12:30pm 15.8 12.7 5.6 50 5.3 W 11 20 6 11 - - 0.0
24/12:20pm 15.8 12.2 5.2 49 5.4 WNW 13 22 7 12 - - 0.0
24/12:10pm 14.6 11.6 5.8 55 4.5 W 11 22 6 12 - - 0.0
24/12:00pm 15.0 12.4 6.0 55 4.7 W 9 24 5 13 - - 0.0
24/11:50am 14.3 11.8 6.5 59 4.1 W 9 17 5 9 - - 0.0
24/11:40am 14.1 11.3 6.8 61 3.8 W 11 19 6 10 - - 0.0
24/11:30am 15.1 12.7 6.9 58 4.3 W 9 15 5 8 - - 0.0
24/11:20am 14.0 11.5 6.5 60 3.9 W 9 13 5 7 - - 0.0
24/11:10am 13.7 10.7 6.2 60 3.9 W 11 19 6 10 - - 0.0
24/11:00am 13.8 10.8 6.1 59 4.0 W 11 20 6 11 - - 0.0
24/10:50am 13.4 10.4 5.9 60 3.8 W 11 20 6 11 - - 0.0
24/10:40am 13.1 9.7 5.8 61 3.7 W 13 22 7 12 - - 0.0
24/10:30am 13.2 9.4 5.6 60 3.9 W 15 26 8 14 - - 0.0
24/10:20am 13.2 9.5 6.1 62 3.6 W 15 24 8 13 - - 0.0
24/10:10am 12.6 8.9 6.3 65 3.2 W 15 22 8 12 - - 0.0
24/10:00am 12.4 8.6 5.8 64 3.3 W 15 24 8 13 - - 0.0
24/09:50am 12.9 9.1 5.9 62 3.6 W 15 24 8 13 - - 0.0
24/09:40am 12.4 8.6 6.0 65 3.3 W 15 24 8 13 - - 0.0
24/09:30am 11.4 8.1 6.3 71 2.6 W 13 20 7 11 - - 0.0
24/09:20am 11.6 7.9 6.3 70 2.7 W 15 24 8 13 - - 0.0
24/09:10am 11.1 7.0 6.3 72 2.4 W 17 24 9 13 - - 0.0
24/09:00am 11.0 6.5 6.3 73 2.4 WNW 19 22 10 12 - - 0.2
24/08:50am 11.0 6.5 6.1 72 2.5 WNW 19 26 10 14 - - 0.2
24/08:40am 10.8 6.1 6.2 73 2.3 W 20 28 11 15 - - 0.2
24/08:30am 10.9 5.9 6.3 73 2.3 WNW 22 30 12 16 - - 0.2
24/08:20am 10.3 4.9 6.3 76 2.0 WNW 24 30 13 16 - - 0.2
24/08:10am 10.2 4.8 6.4 77 1.9 WNW 24 30 13 16 - - 0.2
24/08:00am 10.1 4.7 6.4 78 1.9 WNW 24 32 13 17 - - 0.2
24/07:50am 10.1 4.7 6.4 78 1.9 WNW 24 32 13 17 - - 0.2
24/07:40am 10.1 4.7 6.3 77 1.9 WNW 24 33 13 18 - - 0.2
24/07:30am 10.0 4.6 6.2 77 1.9 WNW 24 33 13 18 - - 0.2
24/07:20am 9.9 4.8 6.1 77 1.9 WNW 22 32 12 17 - - 0.2
24/07:10am 9.8 5.1 6.1 78 1.8 WNW 20 30 11 16 - - 0.2
24/07:00am 9.9 5.2 6.1 77 1.9 WNW 20 28 11 15 - - 0.2
24/06:50am 9.9 5.2 6.2 78 1.9 WNW 20 26 11 14 - - 0.2
24/06:40am 9.9 4.9 6.4 79 1.8 WNW 22 30 12 16 - - 0.2
24/06:30am 9.8 4.8 6.6 80 1.6 WNW 22 30 12 16 - - 0.2
24/06:20am 9.7 4.7 6.6 81 1.6 NW 22 30 12 16 - - 0.2
24/06:10am 9.8 4.8 6.6 80 1.6 NW 22 28 12 15 - - 0.2
24/06:00am 9.9 5.3 6.6 80 1.7 NW 20 26 11 14 - - 0.2
24/05:50am 9.9 5.3 6.6 80 1.7 NW 20 24 11 13 - - 0.2
24/05:40am 10.1 5.5 6.5 78 1.8 NW 20 24 11 13 - - 0.2
24/05:30am 10.0 5.4 6.6 79 1.7 NW 20 24 11 13 - - 0.2
24/05:20am 9.9 5.5 6.5 79 1.7 NW 19 22 10 12 - - 0.2
24/05:10am 9.7 5.6 6.4 80 1.7 NW 17 19 9 10 - - 0.2
24/05:00am 9.7 6.0 6.5 80 1.6 NW 15 19 8 10 - - 0.2
24/04:50am 9.6 5.9 6.5 81 1.6 NW 15 19 8 10 - - 0.2
24/04:40am 9.6 6.3 6.5 81 1.6 NW 13 17 7 9 - - 0.2
24/04:30am 9.4 6.1 6.6 83 1.4 NW 13 15 7 8 - - 0.2
24/04:20am 9.3 6.1 6.8 84 1.3 NNW 13 17 7 9 - - 0.2
24/04:10am 9.3 6.2 7.1 86 1.1 NNW 13 17 7 9 - - 0.2
24/04:00am 9.3 6.6 7.3 87 1.0 NNW 11 15 6 8 - - 0.2
24/03:50am 9.2 6.5 7.4 88 0.9 N 11 15 6 8 - - 0.2
24/03:40am 9.2 6.5 7.5 89 0.9 N 11 17 6 9 - - 0.2
24/03:30am 9.2 6.2 7.6 90 0.8 NNW 13 17 7 9 - - 0.2
24/03:20am 9.1 6.1 7.6 90 0.8 NNW 13 19 7 10 - - 0.2
24/03:10am 9.2 6.2 7.8 91 0.7 N 13 19 7 10 - - 0.2
24/03:00am 9.1 6.2 8.1 93 0.5 N 13 19 7 10 - - 0.2
24/02:50am 9.0 5.8 8.3 95 0.4 N 15 20 8 11 - - 0.2
24/02:40am 9.1 6.3 8.4 95 0.4 N 13 19 7 10 - - 0.2
24/02:30am 9.0 6.1 8.3 95 0.4 N 13 19 7 10 - - 0.2
24/02:20am 9.0 6.1 8.3 95 0.4 N 13 19 7 10 - - 0.2
24/02:10am 8.9 6.0 8.2 95 0.4 N 13 20 7 11 - - 0.2
24/02:00am 9.0 6.1 8.3 95 0.4 NNE 13 19 7 10 - - 0.2
24/01:50am 9.0 6.2 8.4 96 0.3 NNE 13 17 7 9 - - 0.0
24/01:40am 9.1 5.9 8.4 95 0.4 NNE 15 19 8 10 - - 0.0
24/01:30am 9.1 5.9 8.5 96 0.3 NNE 15 19 8 10 - - 0.0
24/01:20am 9.2 6.4 8.5 95 0.4 NNE 13 19 7 10 - - 0.0
24/01:10am 9.2 6.4 8.5 95 0.4 NNE 13 17 7 9 - - 0.0
24/01:00am 9.4 7.0 8.7 95 0.4 NE 11 17 6 9 - - 0.0
24/12:50am 9.4 6.6 8.7 95 0.4 NE 13 17 7 9 - - 0.0
24/12:40am 9.5 6.8 8.8 95 0.4 NE 13 19 7 10 - - 0.0
24/12:30am 9.6 6.9 8.9 95 0.4 NE 13 19 7 10 - - 0.0
24/12:20am 9.6 6.9 8.9 95 0.4 NE 13 17 7 9 - - 0.0
24/12:10am 9.5 7.1 8.8 95 0.4 NE 11 15 6 8 - - 0.0
24/12:00am 9.6 7.3 8.9 95 0.4 NE 11 15 6 8 - - 0.0
 
Date/Time
EST
Temp
°C
App
Temp
°C
Dew
Point
°C
Rel
Hum
%
Delta-T
°C
Wind Press
QNH
hPa
Press
MSL
hPa
Rain since
9am
mm
Dir  Spd
km/h
Gust
km/h
Spd
kts
Gust
kts
23/11:50pm 9.7 7.4 9.0 95 0.4 NE 11 15 6 8 - - 0.0
23/11:40pm 9.6 7.3 8.9 95 0.4 NNE 11 19 6 10 - - 0.0
23/11:30pm 9.6 7.3 8.9 95 0.4 NNE 11 15 6 8 - - 0.0
23/11:20pm 9.8 7.9 9.1 95 0.4 NE 9 15 5 8 - - 0.0
23/11:10pm 9.8 7.9 9.1 95 0.4 NE 9 13 5 7 - - 0.0
23/11:00pm 9.8 7.9 9.1 95 0.4 ENE 9 13 5 7 - - 0.0
23/10:50pm 9.6 7.7 8.9 95 0.4 NE 9 15 5 8 - - 0.0
23/10:40pm 9.9 8.0 9.1 95 0.4 NE 9 15 5 8 - - 0.0
23/10:30pm 9.8 8.3 9.0 95 0.4 ENE 7 11 4 6 - - 0.0
23/10:20pm 9.6 7.6 8.8 95 0.4 ENE 9 11 5 6 - - 0.0
23/10:10pm 9.5 7.5 8.8 95 0.4 ENE 9 11 5 6 - - 0.0
23/10:00pm 9.6 7.6 8.8 95 0.4 ENE 9 15 5 8 - - 0.0
23/09:50pm 9.8 7.5 9.0 95 0.4 ENE 11 15 6 8 - - 0.0
23/09:40pm 9.9 8.4 9.1 95 0.4 NE 7 9 4 5 - - 0.0
23/09:30pm 9.9 8.6 9.1 95 0.4 NE 6 9 3 5 - - 0.0
23/09:20pm 9.7 8.1 8.9 95 0.4 E 7 13 4 7 - - 0.0
23/09:10pm 9.8 8.3 9.0 95 0.4 E 7 11 4 6 - - 0.0
23/09:00pm 9.8 8.2 8.9 94 0.5 E 7 11 4 6 - - 0.0
23/08:50pm 9.8 8.2 8.9 94 0.5 E 7 13 4 7 - - 0.0
23/08:40pm 9.7 8.1 8.8 94 0.5 ESE 7 13 4 7 - - 0.0
23/08:30pm 9.5 8.1 8.7 95 0.4 E 6 7 3 4 - - 0.0
23/08:20pm 9.6 8.2 8.7 94 0.5 ENE 6 7 3 4 - - 0.0
23/08:10pm 9.6 8.0 8.7 94 0.5 E 7 9 4 5 - - 0.0
23/08:00pm 9.7 7.7 8.8 94 0.5 E 9 9 5 5 - - 0.0
23/07:50pm 9.8 8.2 8.9 94 0.5 E 7 9 4 5 - - 0.0
23/07:40pm 10.0 8.5 9.0 93 0.5 E 7 9 4 5 - - 0.0
23/07:30pm 10.0 8.5 9.0 93 0.5 ESE 7 7 4 4 - - 0.0
23/07:20pm 10.0 8.5 9.0 93 0.5 ESE 7 9 4 5 - - 0.0
23/07:10pm 10.1 8.6 9.1 93 0.5 E 7 9 4 5 - - 0.0
23/07:00pm 9.8 8.2 8.9 94 0.5 ESE 7 11 4 6 - - 0.0
23/06:50pm 10.0 8.7 9.1 94 0.5 SE 6 9 3 5 - - 0.0
23/06:40pm 10.0 8.6 9.0 93 0.5 SE 6 7 3 4 - - 0.0
23/06:30pm 10.1 8.6 9.1 93 0.5 SE 7 9 4 5 - - 0.0
23/06:20pm 10.1 7.8 9.1 93 0.5 ESE 11 17 6 9 - - 0.0
23/06:10pm 10.2 7.6 9.2 93 0.5 ESE 13 17 7 9 - - 0.0
23/06:00pm 10.3 8.1 9.2 93 0.6 ESE 11 15 6 8 - - 0.0
23/05:50pm 10.2 8.3 9.0 92 0.6 ESE 9 13 5 7 - - 0.0
23/05:40pm 10.1 8.1 8.8 92 0.7 ESE 9 11 5 6 - - 0.0
23/05:30pm 10.3 8.3 8.6 89 0.9 ESE 9 13 5 7 - - 0.0
23/05:20pm 10.5 8.4 8.3 86 1.2 ESE 9 11 5 6 - - 0.0
23/05:10pm 10.6 8.5 8.2 85 1.3 ESE 9 13 5 7 - - 0.0
23/05:00pm 10.8 8.4 8.8 87 1.1 ESE 11 15 6 8 - - 0.0
23/04:50pm 11.0 8.4 9.2 89 1.0 E 13 17 7 9 - - 0.0
23/04:40pm 11.0 9.1 9.2 89 1.0 ESE 9 15 5 8 - - 0.0
23/04:30pm 11.1 9.2 9.2 88 1.0 ESE 9 13 5 7 - - 0.0
23/04:20pm 11.3 9.4 9.1 86 1.2 ESE 9 15 5 8 - - 0.0
23/04:10pm 11.5 9.9 8.8 83 1.4 ESE 7 15 4 8 - - 0.0
23/04:00pm 12.0 10.5 9.0 82 1.6 ESE 7 13 4 7 - - 0.0
23/03:50pm 12.5 11.1 8.9 79 1.9 SE 6 13 3 7 - - 0.0
23/03:40pm 13.5 12.3 9.7 78 2.1 SSE 6 9 3 5 - - 0.0
23/03:30pm 12.9 11.6 9.3 79 2.0 SE 6 11 3 6 - - 0.0
23/03:20pm 13.6 13.1 9.3 75 2.4 ESE 2 7 1 4 - - 0.0
23/03:10pm 13.4 12.4 8.9 74 2.4 ESE 4 7 2 4 - - 0.0
23/03:00pm 13.8 12.9 9.1 73 2.6 SE 4 7 2 4 - - 0.0
23/02:50pm 14.1 13.5 9.1 72 2.7 SSE 2 7 1 4 - - 0.0
23/02:40pm 13.1 12.6 9.4 78 2.0 SW 2 4 1 2 - - 0.0
23/02:30pm 12.7 11.3 8.7 76 2.2 ESE 6 9 3 5 - - 0.0
23/02:20pm 13.0 12.4 9.0 77 2.2 SSE 2 6 1 3 - - 0.0
23/02:10pm 12.5 11.3 9.6 82 1.6 W 6 9 3 5 - - 0.0
23/02:00pm 13.9 13.1 9.8 76 2.3 WNW 4 7 2 4 - - 0.0
23/01:50pm 13.6 13.0 8.8 73 2.6 SE 2 6 1 3 - - 0.0
23/01:40pm 13.0 12.5 9.3 78 2.0 W 2 4 1 2 - - 0.0
23/01:30pm 12.9 12.1 8.2 73 2.5 E 2 6 1 3 - - 0.0
23/01:20pm 12.1 11.4 8.4 78 2.0 SSE 2 6 1 3 - - 0.0
23/01:10pm 11.9 10.8 8.5 80 1.8 S 4 7 2 4 - - 0.0
23/01:00pm 12.3 12.0 10.0 86 1.3 SSW 2 6 1 3 - - 0.0
23/12:50pm 11.5 10.5 9.0 85 1.3 ESE 4 7 2 4 - - 0.0
23/12:40pm 11.2 9.8 8.9 86 1.2 E 6 11 3 6 - - 0.0
23/12:30pm 11.0 9.3 8.4 84 1.4 E 7 13 4 7 - - 0.0
23/12:20pm 11.3 9.9 8.8 84 1.3 ESE 6 9 3 5 - - 0.0
23/12:10pm 11.2 9.8 8.9 86 1.2 ESE 6 7 3 4 - - 0.0
23/12:00pm 11.5 10.1 8.8 83 1.4 E 6 13 3 7 - - 0.0
23/11:50am 11.3 9.7 8.6 83 1.4 E 7 11 4 6 - - 0.0
23/11:40am 11.7 10.6 8.6 81 1.7 N 4 9 2 5 - - 0.0
23/11:30am 11.7 10.2 8.4 80 1.8 ENE 6 13 3 7 - - 0.0
23/11:20am 12.8 11.4 9.4 80 1.9 E 7 13 4 7 - - 0.0
23/11:10am 12.0 10.5 9.1 82 1.6 E 7 9 4 5 - - 0.0
23/11:00am 10.8 9.4 8.8 87 1.1 E 6 11 3 6 - - 0.0
23/10:50am 10.7 8.7 8.7 87 1.1 E 9 13 5 7 - - 0.0
23/10:40am 11.1 9.5 8.9 86 1.2 E 7 13 4 7 - - 0.0
23/10:30am 11.4 10.0 9.0 85 1.3 E 6 13 3 7 - - 0.0
23/10:20am 11.0 9.4 8.6 85 1.3 E 7 11 4 6 - - 0.0
23/10:10am 12.0 10.9 8.6 80 1.8 ENE 4 9 2 5 - - 0.0

Other Formats:

Comma delimited format used in spreadsheet applications
http://www.bom.gov.au/fwo/IDV60801/IDV60801.99052.axf

JavaScript Object Notation format (JSON) in row-major order
http://www.bom.gov.au/fwo/IDV60801/IDV60801.99052.json